createdAt,value
2022-11-25T00:01:23.448Z,100024.94
2022-11-25T00:03:53.134Z,100037.34
2022-11-25T00:06:21.966Z,100034.03
2022-11-25T00:08:52.485Z,100039.44
2022-11-25T00:11:20.417Z,100040.47
2022-11-25T00:13:48.606Z,100030.75
2022-11-25T00:16:17.650Z,100034.47
2022-11-25T00:18:45.774Z,100041.75
2022-11-25T00:21:14.817Z,100040.69
2022-11-25T00:23:42.726Z,100043.63
2022-11-25T00:26:12.905Z,100046.31
2022-11-25T00:28:42.378Z,100034.72
2022-11-25T00:31:11.161Z,100037.41
2022-11-25T00:33:39.136Z,100040.09
2022-11-25T00:36:09.008Z,100039.47
2022-11-25T00:38:36.949Z,100046.75
2022-11-25T00:41:22.539Z,100040.31
2022-11-25T00:44:09.478Z,100043.00
2022-11-25T00:46:38.502Z,100049.44
2022-11-25T00:49:06.652Z,100051.06
2022-11-25T00:51:34.600Z,100057.53
2022-11-25T00:54:02.482Z,100065.59
2022-11-25T00:56:30.455Z,100062.91
2022-11-25T00:58:59.883Z,100062.28
2022-11-25T01:01:27.960Z,100059.78
2022-11-25T01:03:55.890Z,100066.63
2022-11-25T01:06:23.960Z,100069.31
2022-11-25T01:08:51.890Z,100063.34
2022-11-25T01:11:21.638Z,100060.66
2022-11-25T01:13:49.653Z,100072.25
2022-11-25T01:16:19.756Z,100068.72
2022-11-25T01:18:47.771Z,100076.81
2022-11-25T01:21:17.984Z,100082.19
2022-11-25T01:23:45.930Z,100075.13
2022-11-25T01:26:14.825Z,100096.69
2022-11-25T01:28:42.735Z,100094.00
2022-11-25T01:31:13.031Z,100083.22
2022-11-25T01:33:42.406Z,100085.91
2022-11-25T01:36:11.442Z,100091.31
2022-11-25T01:38:39.461Z,100088.41
2022-11-25T01:41:07.972Z,100100.00
2022-11-25T01:43:36.002Z,100096.25
2022-11-25T01:46:09.062Z,100103.31
2022-11-25T01:48:40.351Z,100104.97
2022-11-25T01:51:14.903Z,100110.34
2022-11-25T01:53:42.631Z,100114.91
2022-11-25T01:56:10.583Z,100114.09
2022-11-25T01:58:38.716Z,100114.91
2022-11-25T02:01:06.931Z,100121.13
2022-11-25T02:03:36.477Z,100127.34
2022-11-25T02:06:07.076Z,100122.78
2022-11-25T02:08:36.385Z,100117.38
2022-11-25T02:11:04.967Z,100113.88
2022-11-25T02:13:32.939Z,100112.00
2022-11-25T02:16:01.376Z,100116.56
2022-11-25T02:18:29.296Z,100120.06
2022-11-25T02:20:57.288Z,100128.16
2022-11-25T02:23:28.900Z,100127.13
2022-11-25T02:25:58.281Z,100123.63
2022-11-25T02:28:27.773Z,100136.03
2022-11-25T02:30:55.762Z,100135.00
2022-11-25T02:33:23.660Z,100133.16
2022-11-25T02:35:52.206Z,100132.53
2022-11-25T02:38:21.813Z,100142.25
2022-11-25T02:40:50.990Z,100134.16
2022-11-25T02:43:20.303Z,100136.88
2022-11-25T02:45:53.191Z,100137.91
2022-11-25T02:48:34.484Z,100144.13
2022-11-25T02:51:09.878Z,100133.53
2022-11-25T02:53:38.914Z,100137.91
2022-11-25T02:56:07.413Z,100140.81
2022-11-25T02:58:37.031Z,100139.97
2022-11-25T03:01:05.041Z,100142.69
2022-11-25T03:03:33.003Z,100146.44
2022-11-25T03:06:00.963Z,100140.81
2022-11-25T03:08:29.002Z,100141.03
2022-11-25T03:10:58.305Z,100145.38
2022-11-25T03:13:26.207Z,100142.69
2022-11-25T03:15:55.500Z,100144.75
2022-11-25T03:18:23.417Z,100148.28
2022-11-25T03:20:53.481Z,100155.53
2022-11-25T03:23:21.444Z,100155.53
2022-11-25T03:25:49.412Z,100152.84
2022-11-25T03:28:17.304Z,100154.50
2022-11-25T03:30:45.209Z,100153.47
2022-11-25T03:33:17.022Z,100153.47
2022-11-25T03:35:44.890Z,100159.66
2022-11-25T03:38:12.831Z,100161.34
2022-11-25T03:40:40.793Z,100157.78
2022-11-25T03:43:08.807Z,100162.97
2022-11-25T03:45:36.851Z,100166.94
2022-11-25T03:48:05.243Z,100183.72
2022-11-25T03:50:34.549Z,100189.09
2022-11-25T03:53:02.433Z,100192.81
2022-11-25T03:55:30.421Z,100188.47
2022-11-25T03:57:58.775Z,100197.38
2022-11-25T04:00:26.758Z,100196.56
2022-11-25T04:02:54.771Z,100195.75
2022-11-25T04:05:22.839Z,100198.63
2022-11-25T04:07:56.419Z,100205.69
2022-11-25T04:10:25.981Z,100205.69
2022-11-25T04:12:52.984Z,100209.41
2022-11-25T04:15:20.983Z,100208.81
2022-11-25T04:17:48.929Z,100206.94
2022-11-25T04:20:16.940Z,100202.38
2022-11-25T04:22:45.040Z,100210.47
2022-11-25T04:25:14.367Z,100217.72
2022-11-25T04:27:42.278Z,100213.16
2022-11-25T04:30:11.011Z,100216.91
2022-11-25T04:32:39.167Z,100218.53
2022-11-25T04:35:07.806Z,100219.59
2022-11-25T04:37:37.093Z,100226.41
2022-11-25T04:40:05.924Z,100219.16
2022-11-25T04:42:36.665Z,100228.06
2022-11-25T04:47:54.004Z,100233.25
2022-11-25T04:50:23.125Z,100239.47
2022-11-25T04:52:51.115Z,100240.50
2022-11-25T04:55:19.283Z,100238.84
2022-11-25T04:57:48.661Z,100238.03
2022-11-25T05:00:18.046Z,100248.81
2022-11-25T05:02:46.005Z,100247.97
2022-11-25T05:05:15.395Z,100251.50
2022-11-25T05:07:45.116Z,100257.91
2022-11-25T05:10:14.323Z,100253.56
2022-11-25T05:12:42.357Z,100262.72
2022-11-25T05:15:12.371Z,100267.03
2022-11-25T05:17:40.307Z,100254.63
2022-11-25T05:20:10.390Z,100267.03
2022-11-25T05:22:38.360Z,100264.34
2022-11-25T05:25:07.049Z,100271.63
2022-11-25T05:27:34.973Z,100289.66
2022-11-25T05:30:02.983Z,100285.28
2022-11-25T05:32:32.377Z,100291.50
2022-11-25T05:35:00.322Z,100297.72
2022-11-25T05:37:28.595Z,100296.06
2022-11-25T05:39:56.577Z,100296.06
2022-11-25T05:42:24.514Z,100300.44
2022-11-25T05:44:52.566Z,100295.63
2022-11-25T05:47:20.597Z,100309.09
2022-11-25T05:49:49.995Z,100321.56
2022-11-25T05:52:17.971Z,100319.69
2022-11-25T05:54:45.997Z,100322.16
2022-11-25T05:57:17.029Z,100322.16
2022-11-25T05:59:44.938Z,100309.72
2022-11-25T06:02:13.072Z,100325.06
2022-11-25T06:04:41.082Z,100317.19
2022-11-25T06:07:10.492Z,100325.91
2022-11-25T06:09:38.482Z,100326.94
2022-11-25T06:12:06.882Z,100329.63
2022-11-25T06:14:35.156Z,100329.41
2022-11-25T06:17:03.208Z,100335.63
2022-11-25T06:19:31.248Z,100327.53
2022-11-25T06:21:59.260Z,100333.78
2022-11-25T06:24:29.025Z,100329.22
2022-11-25T06:26:56.938Z,100334.63
2022-11-25T06:29:24.977Z,100342.28
2022-11-25T06:31:52.934Z,100350.34
2022-11-25T06:34:20.912Z,100352.22
2022-11-25T06:36:50.229Z,100350.34
2022-11-25T06:39:18.363Z,100356.38
2022-11-25T06:41:48.328Z,100367.97
2022-11-25T06:44:16.362Z,100371.50
2022-11-25T06:46:46.016Z,100378.56
2022-11-25T06:49:14.221Z,100382.91
2022-11-25T06:51:42.129Z,100384.34
2022-11-25T06:54:10.460Z,100389.53
2022-11-25T06:56:38.495Z,100391.19
2022-11-25T06:59:07.839Z,100383.13
2022-11-25T07:01:35.791Z,100396.38
2022-11-25T07:04:04.667Z,100391.81
2022-11-25T07:06:33.338Z,100404.25
2022-11-25T07:09:01.358Z,100404.25
2022-11-25T07:11:30.174Z,100410.47
2022-11-25T07:13:59.172Z,100409.44
2022-11-25T07:16:29.035Z,100423.75
2022-11-25T07:18:57.184Z,100421.06
2022-11-25T07:22:08.572Z,100412.97
2022-11-25T07:24:36.896Z,100418.34
2022-11-25T07:27:06.486Z,100424.56
2022-11-25T07:29:57.901Z,100422.69
2022-11-25T07:32:24.928Z,100415.44
2022-11-25T07:34:52.950Z,100414.63
2022-11-25T07:37:21.992Z,100423.34
2022-11-25T07:39:50.042Z,100425.22
2022-11-25T07:42:18.029Z,100428.72
2022-11-25T07:44:45.883Z,100428.72
2022-11-25T07:47:13.767Z,100430.38
2022-11-25T07:49:43.238Z,100435.75
2022-11-25T07:52:11.165Z,100436.63
2022-11-25T07:54:39.109Z,100433.06
2022-11-25T07:57:07.100Z,100436.41
2022-11-25T07:59:36.333Z,100438.25
2022-11-25T08:02:04.554Z,100440.72
2022-11-25T08:04:32.570Z,100440.72
2022-11-25T08:07:01.859Z,100447.19
2022-11-25T08:09:29.916Z,100442.59
2022-11-25T08:11:58.442Z,100451.53
2022-11-25T08:14:26.975Z,100449.69
2022-11-25T08:16:54.982Z,100456.91
2022-11-25T08:19:33.713Z,100469.38
2022-11-25T08:22:03.102Z,100468.31
2022-11-25T08:24:31.065Z,100478.91
2022-11-25T08:27:01.357Z,100478.91
2022-11-25T08:29:29.321Z,100476.41
2022-11-25T08:31:57.310Z,100471.03
2022-11-25T08:34:25.583Z,100472.06
2022-11-25T08:36:53.562Z,100479.75
2022-11-25T08:39:50.626Z,100477.22
2022-11-25T08:42:10.966Z,100482.44
2022-11-25T08:44:40.645Z,100489.47
2022-11-25T08:47:09.966Z,100482.00
2022-11-25T08:49:41.136Z,100484.72
2022-11-25T08:52:10.161Z,100487.00
2022-11-25T08:54:39.596Z,100485.97
2022-11-25T08:57:07.586Z,100488.28
2022-11-25T08:59:35.934Z,100486.22
2022-11-25T09:02:04.280Z,100481.41
2022-11-25T09:04:32.268Z,100471.50
2022-11-25T09:07:37.641Z,100474.59
2022-11-25T09:10:08.654Z,100482.25
2022-11-25T09:12:36.577Z,100481.84
2022-11-25T09:15:07.965Z,100478.94
2022-11-25T09:17:37.467Z,100478.34
2022-11-25T09:20:06.326Z,100468.13
2022-11-25T09:22:34.255Z,100478.53
2022-11-25T09:25:02.273Z,100478.53
2022-11-25T09:27:31.959Z,100470.03
2022-11-25T09:29:59.995Z,100470.66
2022-11-25T09:32:28.043Z,100477.28
2022-11-25T09:34:55.992Z,100479.78
2022-11-25T09:37:48.850Z,100475.63
2022-11-25T09:40:19.757Z,100480.59
2022-11-25T09:43:09.121Z,100468.56
2022-11-25T09:45:59.953Z,100468.97
2022-11-25T09:48:36.308Z,100472.72
2022-11-25T09:51:08.269Z,100481.25
2022-11-25T09:53:43.300Z,100475.00
2022-11-25T09:56:15.698Z,100463.81
2022-11-25T09:58:47.745Z,100472.09
2022-11-25T10:01:18.245Z,100473.97
2022-11-25T10:03:47.657Z,100467.75
2022-11-25T10:06:17.461Z,100467.94
2022-11-25T10:08:46.533Z,100469.81
2022-11-25T10:11:20.258Z,100468.16
2022-11-25T10:13:53.201Z,100468.34
2022-11-25T10:16:29.941Z,100467.72
2022-11-25T10:19:00.744Z,100465.66
2022-11-25T10:21:29.204Z,100465.66
2022-11-25T10:23:57.130Z,100466.50
2022-11-25T10:26:29.021Z,100461.09
2022-11-25T10:29:01.556Z,100464.84
2022-11-25T10:31:32.163Z,100464.66
2022-11-25T10:34:00.890Z,100465.66
2022-11-25T10:36:30.577Z,100458.63
2022-11-25T10:38:59.817Z,100466.72
2022-11-25T10:41:29.063Z,100462.34
2022-11-25T10:43:58.366Z,100469.41
2022-11-25T10:46:43.697Z,100462.34
2022-11-25T10:49:22.079Z,100468.75
2022-11-25T10:51:59.535Z,100469.56
2022-11-25T10:54:28.436Z,100476.00
2022-11-25T10:56:58.000Z,100470.00
2022-11-25T10:59:29.813Z,100475.19
2022-11-25T11:02:15.004Z,100471.88
2022-11-25T11:04:52.195Z,100469.34
2022-11-25T11:07:20.227Z,100471.47
2022-11-25T11:09:48.854Z,100466.06
2022-11-25T11:12:20.993Z,100471.84
2022-11-25T11:14:50.528Z,100471.03
2022-11-25T11:17:33.257Z,100466.69
2022-11-25T11:20:14.328Z,100467.69
2022-11-25T11:22:47.576Z,100456.91
2022-11-25T11:25:27.117Z,100460.66
2022-11-25T11:27:55.254Z,100466.03
2022-11-25T11:30:30.139Z,100467.09
2022-11-25T11:33:03.155Z,100467.09
2022-11-25T11:35:55.942Z,100463.56
2022-11-25T11:38:32.798Z,100459.19
2022-11-25T11:41:07.249Z,100459.00
2022-11-25T11:43:42.497Z,100453.38
2022-11-25T11:46:23.274Z,100448.22
2022-11-25T11:48:56.254Z,100455.28
2022-11-25T11:51:27.711Z,100447.19
2022-11-25T11:54:30.809Z,100459.44
2022-11-25T11:57:01.070Z,100452.34
2022-11-25T11:59:42.495Z,100450.28
2022-11-25T12:02:20.297Z,100447.59
2022-11-25T12:04:52.487Z,100445.72
2022-11-25T12:07:22.819Z,100448.84
2022-11-25T12:09:52.499Z,100443.84
2022-11-25T12:12:20.491Z,100439.50
2022-11-25T12:14:49.147Z,100436.41
2022-11-25T12:17:19.766Z,100440.38
2022-11-25T12:19:53.173Z,100436.81
2022-11-25T12:22:22.782Z,100441.19
2022-11-25T12:24:52.302Z,100448.47
2022-11-25T12:27:21.899Z,100444.91
2022-11-25T12:29:50.870Z,100444.53
2022-11-25T12:32:36.868Z,100452.38
2022-11-25T12:35:06.781Z,100440.59
2022-11-25T12:37:37.346Z,100447.44
2022-11-25T12:40:07.355Z,100437.03
2022-11-25T12:42:35.287Z,100432.28
2022-11-25T12:45:04.674Z,100427.91
2022-11-25T12:47:34.099Z,100426.25
2022-11-25T12:50:02.021Z,100426.25
2022-11-25T12:52:40.013Z,100427.91
2022-11-25T12:55:11.774Z,100430.59
2022-11-25T12:58:03.560Z,100433.28
2022-11-25T13:00:42.800Z,100434.34
2022-11-25T13:03:39.673Z,100436.00
2022-11-25T13:06:39.894Z,100438.91
2022-11-25T13:09:14.486Z,100442.63
2022-11-25T13:11:58.049Z,100440.16
2022-11-25T13:14:28.454Z,100434.13
2022-11-25T13:17:00.633Z,100442.44
2022-11-25T13:19:33.717Z,100446.16
2022-11-25T13:22:02.790Z,100446.38
2022-11-25T13:24:34.030Z,100448.25
2022-11-25T13:27:02.603Z,100449.06
2022-11-25T13:30:04.466Z,100452.00
2022-11-25T13:32:34.322Z,100452.81
2022-11-25T13:35:40.227Z,100451.16
2022-11-25T13:38:49.176Z,100455.69
2022-11-25T13:41:47.411Z,100462.53
2022-11-25T13:44:28.126Z,100459.84
2022-11-25T13:46:56.677Z,100467.13
2022-11-25T13:49:39.566Z,100459.84
2022-11-25T13:52:47.993Z,100457.78
2022-11-25T13:55:32.321Z,100460.28
2022-11-25T13:58:19.500Z,100463.19
2022-11-25T14:01:26.305Z,100471.50
2022-11-25T14:04:01.243Z,100473.13
2022-11-25T14:06:51.235Z,100476.03
2022-11-25T14:09:41.354Z,100472.50
2022-11-25T14:12:32.281Z,100479.34
2022-11-25T14:15:30.458Z,100479.34
2022-11-25T14:21:49.673Z,100489.13
2022-11-25T14:24:23.342Z,100488.06
2022-11-25T14:26:52.841Z,100479.34
2022-11-25T14:29:24.584Z,100492.66
2022-11-25T14:31:54.652Z,100484.75
2022-11-25T14:34:24.083Z,100484.75
2022-11-25T14:36:53.960Z,100483.09
2022-11-25T14:39:24.071Z,100487.66
2022-11-25T14:41:56.388Z,100487.66
2022-11-25T14:44:27.266Z,100498.66
2022-11-25T14:46:55.557Z,100502.41
2022-11-25T14:52:11.992Z,100498.84
2022-11-25T14:54:42.694Z,100501.75
2022-11-25T14:57:10.768Z,100499.22
2022-11-25T14:59:45.146Z,100496.75
2022-11-25T15:02:23.761Z,100495.06
2022-11-25T15:04:52.478Z,100492.59
2022-11-25T15:07:27.803Z,100493.63
2022-11-25T15:09:58.896Z,100485.75
2022-11-25T15:12:30.519Z,100491.16
2022-11-25T15:14:59.911Z,100491.34
2022-11-25T15:17:30.566Z,100489.88
2022-11-25T15:19:59.352Z,100497.78
2022-11-25T15:22:27.984Z,100492.59
2022-11-25T15:24:56.580Z,100501.72
2022-11-25T15:27:26.946Z,100491.13
2022-11-25T15:29:56.342Z,100502.75
2022-11-25T15:32:27.372Z,100501.09
2022-11-25T15:34:55.752Z,100507.53
2022-11-25T15:37:24.815Z,100504.00
2022-11-25T15:39:53.358Z,100512.09
2022-11-25T15:42:22.807Z,100511.25
2022-11-25T15:44:52.086Z,100509.59
2022-11-25T15:47:24.090Z,100508.75
2022-11-25T15:49:58.647Z,100499.84
2022-11-25T15:52:27.340Z,100499.00
2022-11-25T15:54:56.147Z,100494.47
2022-11-25T15:57:26.334Z,100498.19
2022-11-25T16:00:06.415Z,100498.19
2022-11-25T16:02:50.111Z,100510.00
2022-11-25T16:05:31.769Z,100508.31
2022-11-25T16:08:04.764Z,100509.19
2022-11-25T16:10:33.803Z,100512.06
2022-11-25T16:13:21.792Z,100500.47
2022-11-25T16:15:52.184Z,100499.63
2022-11-25T16:21:13.316Z,100505.03
2022-11-25T16:23:45.614Z,100505.03
2022-11-25T16:26:17.246Z,100503.16
2022-11-25T16:28:52.765Z,100505.63
2022-11-25T16:31:21.448Z,100513.72
2022-11-25T16:33:50.133Z,100514.56
2022-11-25T16:36:19.363Z,100513.72
2022-11-25T16:38:47.943Z,100516.41
2022-11-25T16:41:20.960Z,100520.97
2022-11-25T16:43:49.710Z,100517.47
2022-11-25T16:46:18.889Z,100519.09
2022-11-25T16:48:47.918Z,100520.78
2022-11-25T16:51:16.535Z,100522.84
2022-11-25T16:53:47.661Z,100525.53
2022-11-25T16:56:16.596Z,100529.06
2022-11-25T16:58:45.719Z,100528.25
2022-11-25T17:01:16.127Z,100527.41
2022-11-25T17:03:45.191Z,100528.25
2022-11-25T17:06:20.031Z,100526.59
2022-11-25T17:08:52.512Z,100530.13
2022-11-25T17:11:22.406Z,100527.19
2022-11-25T17:13:52.378Z,100526.59
2022-11-25T17:16:21.369Z,100528.25
2022-11-25T17:18:50.295Z,100529.28
2022-11-25T17:21:18.590Z,100529.47
2022-11-25T17:23:50.210Z,100533.81
2022-11-25T17:26:24.680Z,100529.47
2022-11-25T17:29:03.990Z,100531.34
2022-11-25T17:31:33.249Z,100533.00
2022-11-25T17:34:01.922Z,100521.59
2022-11-25T17:36:29.867Z,100516.19
2022-11-25T17:38:59.195Z,100512.47
2022-11-25T17:41:29.489Z,100516.19
2022-11-25T17:43:59.182Z,100517.25
2022-11-25T17:46:29.658Z,100520.75
2022-11-25T17:48:59.220Z,100524.28
2022-11-25T17:51:27.092Z,100524.50
2022-11-25T17:53:56.368Z,100528.22
2022-11-25T17:56:25.841Z,100534.47
2022-11-25T17:58:55.941Z,100524.69
2022-11-25T18:01:23.859Z,100527.38
2022-11-25T18:03:54.791Z,100528.22
2022-11-25T18:06:23.359Z,100535.47
2022-11-25T18:08:52.041Z,100531.94
2022-11-25T18:11:20.223Z,100530.09
2022-11-25T18:13:48.992Z,100522.44
2022-11-25T18:16:18.641Z,100522.44
2022-11-25T18:18:47.269Z,100516.19
2022-11-25T18:21:15.852Z,100516.00
2022-11-25T18:23:44.648Z,100516.81
2022-11-25T18:26:12.565Z,100507.72
2022-11-25T18:28:42.221Z,100507.72
2022-11-25T18:31:11.472Z,100518.28
2022-11-25T18:33:42.061Z,100519.97
2022-11-25T18:36:12.721Z,100521.63
2022-11-25T18:38:41.485Z,100531.34
2022-11-25T18:41:14.543Z,100520.56
2022-11-25T18:43:43.272Z,100520.38
2022-11-25T18:46:11.220Z,100522.03
2022-11-25T18:48:41.526Z,100521.00
2022-11-25T18:51:11.600Z,100525.34
2022-11-25T18:53:40.297Z,100527.00
2022-11-25T18:56:17.491Z,100527.00
2022-11-25T18:58:47.826Z,100528.69
2022-11-25T19:01:15.749Z,100537.41
2022-11-25T19:03:45.835Z,100539.06
2022-11-25T19:06:15.197Z,100534.47
2022-11-25T19:08:44.527Z,100539.69
2022-11-25T19:11:13.430Z,100544.03
2022-11-25T19:13:42.860Z,100563.72
2022-11-25T19:16:14.453Z,100558.13
2022-11-25T19:18:43.141Z,100563.53
2022-11-25T19:21:13.930Z,100558.13
2022-11-25T19:23:42.781Z,100554.41
2022-11-25T19:26:14.170Z,100561.47
2022-11-25T19:28:44.296Z,100560.63
2022-11-25T19:31:13.590Z,100568.50
2022-11-25T19:33:42.582Z,100572.03
2022-11-25T19:36:14.843Z,100580.97
2022-11-25T19:38:42.796Z,100578.09
2022-11-25T19:41:11.515Z,100585.34
2022-11-25T19:43:39.451Z,100594.06
2022-11-25T19:46:08.766Z,100590.53
2022-11-25T19:48:38.815Z,100591.38
2022-11-25T19:51:07.848Z,100590.53
2022-11-25T19:53:37.187Z,100599.47
2022-11-25T19:56:05.942Z,100607.34
2022-11-25T19:58:33.865Z,100609.84
2022-11-25T20:01:03.468Z,100616.25
2022-11-25T20:03:31.530Z,100627.03
2022-11-25T20:06:00.179Z,100613.38
2022-11-25T20:08:29.293Z,100612.53
2022-11-25T20:10:59.878Z,100619.59
2022-11-25T20:13:28.028Z,100619.59
2022-11-25T20:15:57.142Z,100623.97
2022-11-25T20:18:25.156Z,100628.50
2022-11-25T20:20:57.971Z,100626.66
2022-11-25T20:23:26.885Z,100626.66
2022-11-25T20:25:55.878Z,100616.69
2022-11-25T20:28:26.729Z,100628.72
2022-11-25T20:30:56.190Z,100635.13
2022-11-25T20:33:25.055Z,100636.59
2022-11-25T20:35:54.882Z,100634.75
2022-11-25T20:38:23.691Z,100632.06
2022-11-25T20:40:53.271Z,100632.06
2022-11-25T20:43:29.119Z,100639.09
2022-11-25T20:45:57.861Z,100629.94
2022-11-25T20:48:25.988Z,100629.13
2022-11-25T20:50:54.707Z,100633.50
2022-11-25T20:53:23.239Z,100636.22
2022-11-25T20:55:52.947Z,100635.97
2022-11-25T20:58:22.166Z,100634.97
2022-11-25T21:00:57.046Z,100638.69
2022-11-25T21:03:25.630Z,100640.38
2022-11-25T21:05:54.406Z,100642.00
2022-11-25T21:08:23.651Z,100640.97
2022-11-25T21:10:52.570Z,100643.66
2022-11-25T21:13:21.411Z,100644.53
2022-11-25T21:15:51.076Z,100639.94
2022-11-25T21:18:20.466Z,100648.88
2022-11-25T21:20:49.562Z,100641.59
2022-11-25T21:23:19.399Z,100642.44
2022-11-25T21:25:52.010Z,100647.81
2022-11-25T21:28:21.952Z,100644.09
2022-11-25T21:30:50.632Z,100645.94
2022-11-25T21:33:19.932Z,100644.09
2022-11-25T21:35:49.147Z,100645.94
2022-11-25T21:38:18.333Z,100647.63
2022-11-25T21:40:49.587Z,100652.81
2022-11-25T21:43:21.689Z,100662.75
2022-11-25T21:48:21.374Z,100667.16
2022-11-25T21:53:18.008Z,100671.31
2022-11-25T21:55:46.724Z,100671.50
2022-11-25T21:58:18.564Z,100662.34
2022-11-25T22:00:50.203Z,100659.66
2022-11-25T22:03:20.369Z,100665.91
2022-11-25T22:05:49.214Z,100673.16
2022-11-25T22:08:17.309Z,100681.22
2022-11-25T22:10:47.607Z,100683.94
2022-11-25T22:13:16.033Z,100683.94
2022-11-25T22:15:44.695Z,100686.63
2022-11-25T22:18:15.895Z,100683.31
2022-11-25T22:20:50.639Z,100687.69
2022-11-25T22:23:21.254Z,100686.03
2022-11-25T22:25:50.109Z,100680.63
2022-11-25T22:28:21.009Z,100681.66
2022-11-25T22:30:51.808Z,100684.34
2022-11-25T22:33:19.856Z,100678.13
2022-11-25T22:35:50.997Z,100671.91
2022-11-25T22:41:05.616Z,100669.41
2022-11-25T22:43:36.209Z,100673.97
2022-11-25T22:46:05.355Z,100668.56
2022-11-25T22:48:34.709Z,100662.53
2022-11-25T22:51:04.766Z,100667.94
2022-11-25T22:53:32.802Z,100672.31
2022-11-25T22:56:01.404Z,100676.03
2022-11-25T22:58:29.430Z,100674.38
2022-11-25T23:00:58.298Z,100667.34
2022-11-25T23:03:27.152Z,100675.44
2022-11-25T23:05:55.643Z,100671.88
2022-11-25T23:08:25.641Z,100665.66
2022-11-25T23:10:55.015Z,100672.72
2022-11-25T23:13:23.946Z,100676.44
2022-11-25T23:15:53.327Z,100676.44
2022-11-25T23:18:23.732Z,100670.22
2022-11-25T23:20:51.789Z,100677.47
2022-11-25T23:23:20.504Z,100679.34
2022-11-25T23:25:49.931Z,100667.72
2022-11-25T23:28:17.880Z,100677.69
2022-11-25T23:30:48.063Z,100674.16
2022-11-25T23:33:20.397Z,100688.69
2022-11-25T23:35:48.462Z,100681.59
2022-11-25T23:38:19.564Z,100680.59
2022-11-25T23:40:47.468Z,100686.19
2022-11-25T23:43:16.946Z,100684.31
2022-11-25T23:45:47.978Z,100681.59
2022-11-25T23:48:16.043Z,100670.81
2022-11-25T23:50:43.937Z,100687.00
2022-11-25T23:53:14.615Z,100678.91
2022-11-25T23:55:42.557Z,100689.69
2022-11-25T23:58:15.398Z,100684.31
